Time,TemperatureF,DewpointF,PressureIn,WindDirection,WindDirectionDegrees,WindSpeedMPH,WindSpeedGustMPH,Humidity,HourlyPrecipIn,Conditions,Clouds,dailyrainin,SolarRadiationWatts/m^2,SoftwareType,DateUTC
2013-04-24 00:02:00,22.0,21.0,-100.00,NNW,331,0.0,1.0,97,0.00,,,0.36,0.000000,,2013-04-24 05:02:00,
2013-04-24 00:10:00,20.0,19.0,-100.00,NNE,32,0.0,2.0,96,0.00,,,0.32,0.000000,,2013-04-24 05:10:00,
2013-04-24 00:42:00,20.0,19.0,-100.00,NNE,32,0.0,2.0,96,0.00,,,0.32,0.000000,,2013-04-24 05:42:00,
2013-04-24 00:52:00,20.0,19.0,-100.00,NNE,32,0.0,2.0,96,0.00,,,0.32,0.000000,,2013-04-24 05:52:00,
2013-04-24 01:02:00,20.0,19.0,-100.00,NNE,32,0.0,2.0,96,0.00,,,0.32,0.000000,,2013-04-24 06:02:00,
2013-04-24 01:10:00,19.0,18.0,-100.00,NNW,331,0.0,1.0,94,0.00,,,0.27,0.000000,,2013-04-24 06:10:00,
2013-04-24 01:33:00,19.0,18.0,-100.00,NNW,331,0.0,1.0,94,0.00,,,0.27,0.000000,,2013-04-24 06:33:00,
2013-04-24 01:42:00,19.0,18.0,-100.00,NNW,331,0.0,1.0,94,0.00,,,0.27,0.000000,,2013-04-24 06:42:00,
2013-04-24 01:52:00,19.0,18.0,-100.00,NNW,331,0.0,1.0,94,0.00,,,0.27,0.000000,,2013-04-24 06:52:00,
2013-04-24 02:02:00,19.0,18.0,-100.00,NNW,331,0.0,1.0,94,0.00,,,0.27,0.000000,,2013-04-24 07:02:00,
2013-04-24 02:10:00,17.0,15.0,-100.00,NNW,340,0.0,0.0,93,0.00,,,0.21,0.000000,,2013-04-24 07:10:00,
2013-04-24 02:32:00,17.0,15.0,-100.00,NNW,340,0.0,0.0,93,0.00,,,0.21,0.000000,,2013-04-24 07:32:00,
2013-04-24 02:42:00,17.0,15.0,-100.00,NNW,340,0.0,0.0,93,0.00,,,0.21,0.000000,,2013-04-24 07:42:00,
2013-04-24 02:52:00,17.0,15.0,-100.00,NNW,340,0.0,0.0,93,0.00,,,0.21,0.000000,,2013-04-24 07:52:00,
2013-04-24 03:02:00,17.0,15.0,-100.00,NNW,340,0.0,0.0,93,0.00,,,0.21,0.000000,,2013-04-24 08:02:00,
2013-04-24 03:10:00,16.0,14.0,-100.00,ENE,78,0.0,1.0,93,0.00,,,0.13,0.000000,,2013-04-24 08:10:00,
2013-04-24 03:42:00,16.0,14.0,-100.00,ENE,78,0.0,1.0,93,0.00,,,0.13,0.000000,,2013-04-24 08:42:00,
2013-04-24 03:52:00,16.0,14.0,-100.00,ENE,78,0.0,1.0,93,0.00,,,0.13,0.000000,,2013-04-24 08:52:00,
2013-04-24 04:02:00,16.0,14.0,-100.00,ENE,78,0.0,1.0,93,0.00,,,0.13,0.000000,,2013-04-24 09:02:00,
2013-04-24 04:10:00,15.0,13.0,-100.00,NNE,26,0.0,0.0,92,0.00,,,0.09,0.000000,,2013-04-24 09:10:00,
2013-04-24 04:33:00,15.0,13.0,-100.00,NNE,26,0.0,0.0,92,0.00,,,0.09,0.000000,,2013-04-24 09:33:00,
2013-04-24 04:42:00,15.0,13.0,-100.00,NNE,26,0.0,0.0,92,0.00,,,0.09,0.000000,,2013-04-24 09:42:00,
2013-04-24 04:53:00,15.0,13.0,-100.00,NNE,26,0.0,0.0,92,0.00,,,0.09,0.000000,,2013-04-24 09:53:00,
2013-04-24 05:02:00,15.0,13.0,-100.00,NNE,26,0.0,0.0,92,0.00,,,0.09,0.000000,,2013-04-24 10:02:00,
2013-04-24 05:10:00,15.0,13.0,-100.00,North,0,0.0,0.0,92,0.00,,,0.04,0.000000,,2013-04-24 10:10:00,
2013-04-24 05:33:00,15.0,13.0,-100.00,North,0,0.0,0.0,92,0.00,,,0.04,0.000000,,2013-04-24 10:33:00,
2013-04-24 05:42:00,15.0,13.0,-100.00,North,0,0.0,0.0,92,0.00,,,0.04,0.000000,,2013-04-24 10:42:00,
2013-04-24 05:53:00,15.0,13.0,-100.00,North,0,0.0,0.0,92,0.00,,,0.04,0.000000,,2013-04-24 10:53:00,
2013-04-24 06:02:00,15.0,13.0,-100.00,North,0,0.0,0.0,92,0.00,,,0.04,0.000000,,2013-04-24 11:02:00,
2013-04-24 06:10:00,14.0,12.0,-100.00,North,9,0.0,0.0,90,0.00,,,0.01,1.000000,,2013-04-24 11:10:00,
2013-04-24 06:32:00,14.0,12.0,-100.00,North,9,0.0,0.0,90,0.00,,,0.01,1.000000,,2013-04-24 11:32:00,
2013-04-24 06:43:00,14.0,12.0,-100.00,North,9,0.0,0.0,90,0.00,,,0.01,1.000000,,2013-04-24 11:43:00,
2013-04-24 06:52:00,14.0,12.0,-100.00,North,9,0.0,0.0,90,0.00,,,0.01,1.000000,,2013-04-24 11:52:00,
2013-04-24 07:02:00,14.0,12.0,-100.00,North,9,0.0,0.0,90,0.00,,,0.01,1.000000,,2013-04-24 12:02:00,
2013-04-24 07:10:00,16.0,14.0,-100.00,ESE,123,1.0,1.0,91,0.00,,,-99.99,16.000000,,2013-04-24 12:10:00,
2013-04-24 07:42:00,16.0,14.0,-100.00,ESE,123,1.0,1.0,91,0.00,,,-99.99,16.000000,,2013-04-24 12:42:00,
2013-04-24 07:52:00,16.0,14.0,-100.00,ESE,123,1.0,1.0,91,0.00,,,-99.99,16.000000,,2013-04-24 12:52:00,
2013-04-24 08:01:00,16.0,14.0,-100.00,ESE,123,1.0,1.0,91,0.00,,,-99.99,16.000000,,2013-04-24 13:01:00,
2013-04-24 09:10:00,32.0,25.0,-100.00,WNW,301,3.0,6.0,74,-99.99,,,0.00,329.000000,,2013-04-24 14:10:00,
2013-04-24 09:42:00,32.0,25.0,-100.00,WNW,301,3.0,6.0,74,-99.99,,,0.00,329.000000,,2013-04-24 14:42:00,
2013-04-24 09:52:00,32.0,25.0,-100.00,WNW,301,3.0,6.0,74,-99.99,,,0.00,329.000000,,2013-04-24 14:52:00,
2013-04-24 10:01:00,32.0,25.0,-100.00,WNW,301,3.0,6.0,74,-99.99,,,0.00,329.000000,,2013-04-24 15:01:00,
2013-04-24 10:10:00,38.0,23.0,-100.00,WSW,237,5.0,10.0,55,0.00,,,0.00,487.000000,,2013-04-24 15:10:00,
2013-04-24 10:43:00,38.0,23.0,-100.00,WSW,237,5.0,10.0,55,0.00,,,0.00,487.000000,,2013-04-24 15:43:00,
2013-04-24 10:53:00,38.0,23.0,-100.00,WSW,237,5.0,10.0,55,0.00,,,0.00,487.000000,,2013-04-24 15:53:00,
2013-04-24 11:03:00,38.0,23.0,-100.00,WSW,237,5.0,10.0,55,0.00,,,0.00,487.000000,,2013-04-24 16:03:00,
2013-04-24 11:10:00,44.0,21.0,-100.00,SW,228,5.0,12.0,39,0.00,,,0.00,730.000000,,2013-04-24 16:10:00,
2013-04-24 11:42:00,44.0,21.0,-100.00,SW,228,5.0,12.0,39,0.00,,,0.00,730.000000,,2013-04-24 16:42:00,
2013-04-24 11:53:00,44.0,21.0,-100.00,SW,228,5.0,12.0,39,0.00,,,0.00,730.000000,,2013-04-24 16:53:00,
2013-04-24 12:02:00,44.0,21.0,-100.00,SW,228,5.0,12.0,39,0.00,,,0.00,730.000000,,2013-04-24 17:02:00,
2013-04-24 12:10:00,45.0,20.0,-100.00,WSW,246,6.0,12.0,36,0.00,,,0.00,830.000000,,2013-04-24 17:10:00,
2013-04-24 12:42:00,45.0,20.0,-100.00,WSW,246,6.0,12.0,36,0.00,,,0.00,830.000000,,2013-04-24 17:42:00,
2013-04-24 12:52:00,45.0,20.0,-100.00,WSW,246,6.0,12.0,36,0.00,,,0.00,830.000000,,2013-04-24 17:52:00,
2013-04-24 13:02:00,45.0,20.0,-100.00,WSW,246,6.0,12.0,36,0.00,,,0.00,830.000000,,2013-04-24 18:02:00,
2013-04-24 13:10:00,46.0,21.0,-100.00,WNW,301,7.0,13.0,37,0.00,,,0.00,855.000000,,2013-04-24 18:10:00,
2013-04-24 13:33:00,46.0,21.0,-100.00,WNW,301,7.0,13.0,37,0.00,,,0.00,855.000000,,2013-04-24 18:33:00,
2013-04-24 13:43:00,46.0,21.0,-100.00,WNW,301,7.0,13.0,37,0.00,,,0.00,855.000000,,2013-04-24 18:43:00,
2013-04-24 13:52:00,46.0,21.0,-100.00,WNW,301,7.0,13.0,37,0.00,,,0.00,855.000000,,2013-04-24 18:52:00,
2013-04-24 14:02:00,46.0,21.0,-100.00,WNW,301,7.0,13.0,37,0.00,,,0.00,855.000000,,2013-04-24 19:02:00,
2013-04-24 14:10:00,49.0,24.0,-100.00,WSW,255,6.0,15.0,37,0.00,,,0.00,749.000000,,2013-04-24 19:10:00,
2013-04-24 14:32:00,49.0,24.0,-100.00,WSW,255,6.0,15.0,37,0.00,,,0.00,749.000000,,2013-04-24 19:32:00,
2013-04-24 14:42:00,49.0,24.0,-100.00,WSW,255,6.0,15.0,37,0.00,,,0.00,749.000000,,2013-04-24 19:42:00,
2013-04-24 14:52:00,49.0,24.0,-100.00,WSW,255,6.0,15.0,37,0.00,,,0.00,749.000000,,2013-04-24 19:52:00,
2013-04-24 15:02:00,49.0,24.0,-100.00,WSW,255,6.0,15.0,37,0.00,,,0.00,749.000000,,2013-04-24 20:02:00,
2013-04-24 15:10:00,47.0,20.0,-100.00,WSW,245,6.0,18.0,34,0.00,,,0.00,674.000000,,2013-04-24 20:10:00,
2013-04-24 15:32:00,47.0,20.0,-100.00,WSW,245,6.0,18.0,34,0.00,,,0.00,674.000000,,2013-04-24 20:32:00,
2013-04-24 15:42:00,47.0,20.0,-100.00,WSW,245,6.0,18.0,34,0.00,,,0.00,674.000000,,2013-04-24 20:42:00,
2013-04-24 15:52:00,47.0,20.0,-100.00,WSW,245,6.0,18.0,34,0.00,,,0.00,674.000000,,2013-04-24 20:52:00,
2013-04-24 16:02:00,47.0,20.0,-100.00,WSW,245,6.0,18.0,34,0.00,,,0.00,674.000000,,2013-04-24 21:02:00,
2013-04-24 16:10:00,47.0,21.0,-100.00,WSW,254,8.0,20.0,35,0.00,,,0.00,399.000000,,2013-04-24 21:10:00,
2013-04-24 16:42:00,47.0,21.0,-100.00,WSW,254,8.0,20.0,35,0.00,,,0.00,399.000000,,2013-04-24 21:42:00,
2013-04-24 16:52:00,47.0,21.0,-100.00,WSW,254,8.0,20.0,35,0.00,,,0.00,399.000000,,2013-04-24 21:52:00,
2013-04-24 17:03:00,47.0,21.0,-100.00,WSW,254,8.0,20.0,35,0.00,,,0.00,399.000000,,2013-04-24 22:03:00,
2013-04-24 17:10:00,47.0,20.0,-100.00,West,260,6.0,15.0,34,0.00,,,0.00,358.000000,,2013-04-24 22:10:00,
2013-04-24 17:33:00,47.0,20.0,-100.00,West,260,6.0,15.0,34,0.00,,,0.00,358.000000,,2013-04-24 22:33:00,
2013-04-24 17:42:00,47.0,20.0,-100.00,West,260,6.0,15.0,34,0.00,,,0.00,358.000000,,2013-04-24 22:42:00,
2013-04-24 17:52:00,47.0,20.0,-100.00,West,260,6.0,15.0,34,0.00,,,0.00,358.000000,,2013-04-24 22:52:00,
2013-04-24 18:02:00,47.0,20.0,-100.00,West,260,6.0,15.0,34,0.00,,,0.00,358.000000,,2013-04-24 23:02:00,
2013-04-24 18:10:00,47.0,22.0,-100.00,SW,234,6.0,17.0,37,0.00,,,0.00,192.000000,,2013-04-24 23:10:00,
2013-04-24 18:42:00,47.0,22.0,-100.00,SW,234,6.0,17.0,37,0.00,,,0.00,192.000000,,2013-04-24 23:42:00,
2013-04-24 18:52:00,47.0,22.0,-100.00,SW,234,6.0,17.0,37,0.00,,,0.00,192.000000,,2013-04-24 23:52:00,
2013-04-24 19:02:00,47.0,22.0,-100.00,SW,234,6.0,17.0,37,0.00,,,0.00,192.000000,,2013-04-25 00:02:00,
2013-04-24 19:10:00,43.0,19.0,-100.00,SW,223,4.0,14.0,37,0.00,,,-99.99,59.000000,,2013-04-25 00:10:00,
2013-04-24 19:32:00,43.0,19.0,-100.00,SW,223,4.0,14.0,37,0.00,,,-99.99,59.000000,,2013-04-25 00:32:00,
2013-04-24 19:42:00,43.0,19.0,-100.00,SW,223,4.0,14.0,37,0.00,,,-99.99,59.000000,,2013-04-25 00:42:00,
2013-04-24 19:52:00,43.0,19.0,-100.00,SW,223,4.0,14.0,37,0.00,,,-99.99,59.000000,,2013-04-25 00:52:00,
2013-04-24 20:01:00,43.0,19.0,-100.00,SW,223,4.0,14.0,37,0.00,,,-99.99,59.000000,,2013-04-25 01:01:00,
2013-04-24 20:10:00,40.0,18.0,-100.00,SSW,205,4.0,9.0,40,0.00,,,0.00,12.000000,,2013-04-25 01:10:00,
2013-04-24 20:32:00,40.0,18.0,-100.00,SSW,205,4.0,9.0,40,0.00,,,0.00,12.000000,,2013-04-25 01:32:00,
2013-04-24 20:42:00,40.0,18.0,-100.00,SSW,205,4.0,9.0,40,0.00,,,0.00,12.000000,,2013-04-25 01:42:00,
2013-04-24 20:52:00,40.0,18.0,-100.00,SSW,205,4.0,9.0,40,0.00,,,0.00,12.000000,,2013-04-25 01:52:00,
2013-04-24 21:02:00,40.0,18.0,-100.00,SSW,205,4.0,9.0,40,0.00,,,0.00,12.000000,,2013-04-25 02:02:00,
2013-04-24 21:10:00,38.0,18.0,-100.00,SW,226,2.0,11.0,43,0.00,,,0.00,0.000000,,2013-04-25 02:10:00,
2013-04-24 21:32:00,38.0,18.0,-100.00,SW,226,2.0,11.0,43,0.00,,,0.00,0.000000,,2013-04-25 02:32:00,
2013-04-24 21:42:00,38.0,18.0,-100.00,SW,226,2.0,11.0,43,0.00,,,0.00,0.000000,,2013-04-25 02:42:00,
2013-04-24 21:52:00,38.0,18.0,-100.00,SW,226,2.0,11.0,43,0.00,,,0.00,0.000000,,2013-04-25 02:52:00,
2013-04-24 22:02:00,38.0,18.0,-100.00,SW,226,2.0,11.0,43,0.00,,,0.00,0.000000,,2013-04-25 03:02:00,
2013-04-24 22:10:00,37.0,20.0,-100.00,NW,319,6.0,11.0,49,0.00,,,0.00,0.000000,,2013-04-25 03:10:00,
2013-04-24 22:33:00,37.0,20.0,-100.00,NW,319,6.0,11.0,49,0.00,,,0.00,0.000000,,2013-04-25 03:33:00,
2013-04-24 22:43:00,37.0,20.0,-100.00,NW,319,6.0,11.0,49,0.00,,,0.00,0.000000,,2013-04-25 03:43:00,
2013-04-24 22:52:00,37.0,20.0,-100.00,NW,319,6.0,11.0,49,0.00,,,0.00,0.000000,,2013-04-25 03:52:00,
2013-04-24 23:03:00,37.0,20.0,-100.00,NW,319,6.0,11.0,49,0.00,,,0.00,0.000000,,2013-04-25 04:03:00,
2013-04-24 23:10:00,33.0,27.0,-100.00,NW,311,4.0,15.0,79,0.00,,,0.00,0.000000,,2013-04-25 04:10:00,
2013-04-24 23:33:00,33.0,27.0,-100.00,NW,311,4.0,15.0,79,0.00,,,0.00,0.000000,,2013-04-25 04:33:00,
2013-04-24 23:43:00,33.0,27.0,-100.00,NW,311,4.0,15.0,79,0.00,,,0.00,0.000000,,2013-04-25 04:43:00,
2013-04-24 23:52:00,33.0,27.0,-100.00,NW,311,4.0,15.0,79,0.00,,,0.00,0.000000,,2013-04-25 04:52:00,